sensor_id;sensor_type;location;lat;lon;timestamp;P1;durP1;ratioP1;P2;durP2;ratioP2
29814;SDS011;16708;50.426;7.664;2023-06-14T00:02:39;6.50;;;3.70;;
29814;SDS011;16708;50.426;7.664;2023-06-14T00:07:32;7.50;;;3.70;;
29814;SDS011;16708;50.426;7.664;2023-06-14T00:12:26;7.20;;;4.00;;
29814;SDS011;16708;50.426;7.664;2023-06-14T00:17:20;5.50;;;3.60;;
29814;SDS011;16708;50.426;7.664;2023-06-14T00:22:14;6.40;;;3.50;;
29814;SDS011;16708;50.426;7.664;2023-06-14T00:27:07;7.10;;;3.50;;
29814;SDS011;16708;50.426;7.664;2023-06-14T00:32:00;7.70;;;3.60;;
29814;SDS011;16708;50.426;7.664;2023-06-14T00:36:54;8.00;;;3.70;;
29814;SDS011;16708;50.426;7.664;2023-06-14T00:41:48;6.20;;;3.40;;
29814;SDS011;16708;50.426;7.664;2023-06-14T00:46:42;5.10;;;3.40;;
29814;SDS011;16708;50.426;7.664;2023-06-14T00:51:35;5.20;;;3.30;;
29814;SDS011;16708;50.426;7.664;2023-06-14T00:56:29;6.50;;;3.40;;
29814;SDS011;16708;50.426;7.664;2023-06-14T01:01:23;6.80;;;3.20;;
29814;SDS011;16708;50.426;7.664;2023-06-14T01:11:11;6.20;;;3.50;;
29814;SDS011;16708;50.426;7.664;2023-06-14T01:16:06;7.40;;;3.30;;
29814;SDS011;16708;50.426;7.664;2023-06-14T01:21:00;6.60;;;3.30;;
29814;SDS011;16708;50.426;7.664;2023-06-14T01:25:54;6.10;;;3.30;;
29814;SDS011;16708;50.426;7.664;2023-06-14T01:30:48;7.80;;;3.30;;
29814;SDS011;16708;50.426;7.664;2023-06-14T01:35:42;5.60;;;2.90;;
29814;SDS011;16708;50.426;7.664;2023-06-14T01:40:36;7.40;;;3.00;;
29814;SDS011;16708;50.426;7.664;2023-06-14T01:45:31;7.90;;;3.10;;
29814;SDS011;16708;50.426;7.664;2023-06-14T01:50:25;5.40;;;3.10;;
29814;SDS011;16708;50.426;7.664;2023-06-14T01:55:19;6.00;;;3.00;;
29814;SDS011;16708;50.426;7.664;2023-06-14T02:00:13;4.80;;;3.10;;
29814;SDS011;16708;50.426;7.664;2023-06-14T02:05:06;5.30;;;2.80;;
29814;SDS011;16708;50.426;7.664;2023-06-14T02:10:00;8.70;;;3.10;;
29814;SDS011;16708;50.426;7.664;2023-06-14T02:14:54;5.10;;;2.90;;
29814;SDS011;16708;50.426;7.664;2023-06-14T02:19:49;7.70;;;3.20;;
29814;SDS011;16708;50.426;7.664;2023-06-14T02:24:40;5.70;;;3.10;;
29814;SDS011;16708;50.426;7.664;2023-06-14T02:29:34;6.90;;;3.20;;
29814;SDS011;16708;50.426;7.664;2023-06-14T02:34:26;5.70;;;3.40;;
29814;SDS011;16708;50.426;7.664;2023-06-14T02:39:20;5.40;;;2.90;;
29814;SDS011;16708;50.426;7.664;2023-06-14T02:44:14;10.00;;;3.00;;
29814;SDS011;16708;50.426;7.664;2023-06-14T02:49:05;7.50;;;2.80;;
29814;SDS011;16708;50.426;7.664;2023-06-14T02:53:58;4.80;;;2.70;;
29814;SDS011;16708;50.426;7.664;2023-06-14T02:58:53;6.00;;;3.40;;
29814;SDS011;16708;50.426;7.664;2023-06-14T03:03:47;6.40;;;3.00;;
29814;SDS011;16708;50.426;7.664;2023-06-14T03:08:38;5.00;;;2.90;;
29814;SDS011;16708;50.426;7.664;2023-06-14T03:13:32;5.00;;;3.10;;
29814;SDS011;16708;50.426;7.664;2023-06-14T03:18:26;7.90;;;2.90;;
29814;SDS011;16708;50.426;7.664;2023-06-14T03:23:20;10.50;;;3.40;;
29814;SDS011;16708;50.426;7.664;2023-06-14T03:28:14;8.10;;;2.90;;
29814;SDS011;16708;50.426;7.664;2023-06-14T03:33:08;6.70;;;3.00;;
29814;SDS011;16708;50.426;7.664;2023-06-14T03:38:02;5.20;;;2.80;;
29814;SDS011;16708;50.426;7.664;2023-06-14T03:42:55;5.70;;;3.00;;
29814;SDS011;16708;50.426;7.664;2023-06-14T03:47:48;7.00;;;3.00;;
29814;SDS011;16708;50.426;7.664;2023-06-14T03:52:42;5.70;;;3.20;;
29814;SDS011;16708;50.426;7.664;2023-06-14T03:57:39;6.10;;;3.00;;
29814;SDS011;16708;50.426;7.664;2023-06-14T04:02:29;6.40;;;3.10;;
29814;SDS011;16708;50.426;7.664;2023-06-14T04:07:23;5.60;;;3.00;;
29814;SDS011;16708;50.426;7.664;2023-06-14T04:12:18;8.70;;;3.20;;
29814;SDS011;16708;50.426;7.664;2023-06-14T04:17:12;7.70;;;3.30;;
29814;SDS011;16708;50.426;7.664;2023-06-14T04:22:06;9.60;;;3.30;;
29814;SDS011;16708;50.426;7.664;2023-06-14T04:27:00;7.40;;;3.00;;
29814;SDS011;16708;50.426;7.664;2023-06-14T04:31:54;6.60;;;3.00;;
29814;SDS011;16708;50.426;7.664;2023-06-14T04:36:48;5.30;;;2.80;;
29814;SDS011;16708;50.426;7.664;2023-06-14T04:41:41;4.70;;;2.80;;
29814;SDS011;16708;50.426;7.664;2023-06-14T04:46:35;5.90;;;2.90;;
29814;SDS011;16708;50.426;7.664;2023-06-14T04:51:29;6.40;;;3.10;;
29814;SDS011;16708;50.426;7.664;2023-06-14T04:56:23;10.50;;;3.10;;
29814;SDS011;16708;50.426;7.664;2023-06-14T05:01:17;9.60;;;3.00;;
29814;SDS011;16708;50.426;7.664;2023-06-14T05:06:11;5.80;;;2.80;;
29814;SDS011;16708;50.426;7.664;2023-06-14T05:11:06;5.80;;;3.10;;
29814;SDS011;16708;50.426;7.664;2023-06-14T05:16:00;6.90;;;3.00;;
29814;SDS011;16708;50.426;7.664;2023-06-14T05:20:54;7.70;;;3.30;;
29814;SDS011;16708;50.426;7.664;2023-06-14T05:25:48;6.30;;;2.90;;
29814;SDS011;16708;50.426;7.664;2023-06-14T05:30:41;8.10;;;2.80;;
29814;SDS011;16708;50.426;7.664;2023-06-14T05:35:35;6.20;;;2.90;;
29814;SDS011;16708;50.426;7.664;2023-06-14T05:40:30;6.60;;;2.70;;
29814;SDS011;16708;50.426;7.664;2023-06-14T05:45:23;8.80;;;3.00;;
29814;SDS011;16708;50.426;7.664;2023-06-14T05:50:17;4.70;;;2.70;;
29814;SDS011;16708;50.426;7.664;2023-06-14T05:55:11;7.30;;;3.00;;
29814;SDS011;16708;50.426;7.664;2023-06-14T06:00:05;7.10;;;3.10;;
29814;SDS011;16708;50.426;7.664;2023-06-14T06:04:59;5.50;;;2.70;;
29814;SDS011;16708;50.426;7.664;2023-06-14T06:09:54;4.10;;;2.80;;
29814;SDS011;16708;50.426;7.664;2023-06-14T06:14:48;7.10;;;2.70;;
29814;SDS011;16708;50.426;7.664;2023-06-14T06:19:42;4.50;;;2.80;;
29814;SDS011;16708;50.426;7.664;2023-06-14T06:24:35;8.70;;;2.90;;
29814;SDS011;16708;50.426;7.664;2023-06-14T06:29:30;6.60;;;2.60;;
29814;SDS011;16708;50.426;7.664;2023-06-14T06:34:24;7.70;;;2.90;;
29814;SDS011;16708;50.426;7.664;2023-06-14T06:39:18;4.60;;;2.30;;
29814;SDS011;16708;50.426;7.664;2023-06-14T06:44:13;6.90;;;2.80;;
29814;SDS011;16708;50.426;7.664;2023-06-14T06:49:07;6.00;;;2.50;;
29814;SDS011;16708;50.426;7.664;2023-06-14T06:54:01;6.60;;;2.50;;
29814;SDS011;16708;50.426;7.664;2023-06-14T06:58:56;5.80;;;2.50;;
29814;SDS011;16708;50.426;7.664;2023-06-14T07:03:50;4.70;;;2.30;;
29814;SDS011;16708;50.426;7.664;2023-06-14T07:08:44;4.30;;;2.30;;
29814;SDS011;16708;50.426;7.664;2023-06-14T07:13:38;4.70;;;2.00;;
29814;SDS011;16708;50.426;7.664;2023-06-14T07:18:32;6.10;;;2.20;;
29814;SDS011;16708;50.426;7.664;2023-06-14T07:23:26;4.40;;;2.00;;
29814;SDS011;16708;50.426;7.664;2023-06-14T07:28:21;7.30;;;2.10;;
29814;SDS011;16708;50.426;7.664;2023-06-14T07:33:14;6.80;;;2.30;;
29814;SDS011;16708;50.426;7.664;2023-06-14T07:38:09;3.40;;;2.00;;
29814;SDS011;16708;50.426;7.664;2023-06-14T07:43:03;7.30;;;2.00;;
29814;SDS011;16708;50.426;7.664;2023-06-14T07:47:57;3.50;;;1.80;;
29814;SDS011;16708;50.426;7.664;2023-06-14T07:52:52;4.10;;;1.90;;
29814;SDS011;16708;50.426;7.664;2023-06-14T07:57:46;5.40;;;2.00;;
29814;SDS011;16708;50.426;7.664;2023-06-14T08:02:39;3.10;;;1.90;;
29814;SDS011;16708;50.426;7.664;2023-06-14T08:07:33;3.20;;;1.80;;
29814;SDS011;16708;50.426;7.664;2023-06-14T08:12:26;2.90;;;1.80;;
29814;SDS011;16708;50.426;7.664;2023-06-14T08:17:21;3.50;;;1.50;;
29814;SDS011;16708;50.426;7.664;2023-06-14T08:22:15;4.30;;;1.60;;
29814;SDS011;16708;50.426;7.664;2023-06-14T08:27:10;6.20;;;1.70;;
29814;SDS011;16708;50.426;7.664;2023-06-14T08:32:04;7.30;;;1.70;;
29814;SDS011;16708;50.426;7.664;2023-06-14T08:36:58;4.20;;;1.90;;
29814;SDS011;16708;50.426;7.664;2023-06-14T08:41:52;4.60;;;1.80;;
29814;SDS011;16708;50.426;7.664;2023-06-14T08:46:47;5.50;;;2.00;;
29814;SDS011;16708;50.426;7.664;2023-06-14T08:51:40;5.10;;;1.90;;
29814;SDS011;16708;50.426;7.664;2023-06-14T08:56:34;4.50;;;1.90;;
29814;SDS011;16708;50.426;7.664;2023-06-14T09:01:28;5.30;;;2.00;;
29814;SDS011;16708;50.426;7.664;2023-06-14T09:06:23;4.50;;;2.00;;
29814;SDS011;16708;50.426;7.664;2023-06-14T09:11:17;4.50;;;1.90;;
29814;SDS011;16708;50.426;7.664;2023-06-14T09:16:11;3.90;;;1.90;;
29814;SDS011;16708;50.426;7.664;2023-06-14T09:21:06;4.50;;;1.70;;
29814;SDS011;16708;50.426;7.664;2023-06-14T09:26:00;5.50;;;1.80;;
29814;SDS011;16708;50.426;7.664;2023-06-14T09:30:55;3.50;;;1.60;;
29814;SDS011;16708;50.426;7.664;2023-06-14T09:35:50;4.00;;;1.70;;
29814;SDS011;16708;50.426;7.664;2023-06-14T09:40:44;2.80;;;1.50;;
29814;SDS011;16708;50.426;7.664;2023-06-14T09:45:38;3.20;;;1.40;;
29814;SDS011;16708;50.426;7.664;2023-06-14T09:50:32;4.00;;;1.70;;
29814;SDS011;16708;50.426;7.664;2023-06-14T09:55:27;3.30;;;1.70;;
29814;SDS011;16708;50.426;7.664;2023-06-14T10:00:21;3.70;;;1.60;;
29814;SDS011;16708;50.426;7.664;2023-06-14T10:05:16;3.70;;;1.60;;
29814;SDS011;16708;50.426;7.664;2023-06-14T10:10:12;3.70;;;1.80;;
29814;SDS011;16708;50.426;7.664;2023-06-14T10:20:04;3.60;;;1.90;;
29814;SDS011;16708;50.426;7.664;2023-06-14T10:24:57;5.30;;;2.10;;
29814;SDS011;16708;50.426;7.664;2023-06-14T10:29:52;2.50;;;1.70;;
29814;SDS011;16708;50.426;7.664;2023-06-14T10:34:46;4.50;;;1.90;;
29814;SDS011;16708;50.426;7.664;2023-06-14T10:39:41;2.80;;;1.60;;
29814;SDS011;16708;50.426;7.664;2023-06-14T10:44:35;3.30;;;1.80;;
29814;SDS011;16708;50.426;7.664;2023-06-14T10:59:20;3.10;;;1.70;;
29814;SDS011;16708;50.426;7.664;2023-06-14T11:04:14;3.80;;;1.50;;
29814;SDS011;16708;50.426;7.664;2023-06-14T11:14:04;4.80;;;1.80;;
29814;SDS011;16708;50.426;7.664;2023-06-14T11:23:53;2.70;;;1.80;;
29814;SDS011;16708;50.426;7.664;2023-06-14T11:28:48;2.60;;;2.00;;
29814;SDS011;16708;50.426;7.664;2023-06-14T11:33:42;2.90;;;1.90;;
29814;SDS011;16708;50.426;7.664;2023-06-14T11:38:37;2.80;;;2.00;;
29814;SDS011;16708;50.426;7.664;2023-06-14T11:43:31;5.40;;;2.40;;
29814;SDS011;16708;50.426;7.664;2023-06-14T11:48:26;4.30;;;2.20;;
29814;SDS011;16708;50.426;7.664;2023-06-14T11:53:21;4.60;;;2.20;;
29814;SDS011;16708;50.426;7.664;2023-06-14T11:58:15;6.80;;;2.30;;
29814;SDS011;16708;50.426;7.664;2023-06-14T12:08:03;2.80;;;2.10;;
29814;SDS011;16708;50.426;7.664;2023-06-14T12:12:56;4.40;;;2.40;;
29814;SDS011;16708;50.426;7.664;2023-06-14T12:22:42;4.30;;;2.30;;
29814;SDS011;16708;50.426;7.664;2023-06-14T12:27:37;3.90;;;2.30;;
29814;SDS011;16708;50.426;7.664;2023-06-14T12:32:31;4.20;;;2.30;;
29814;SDS011;16708;50.426;7.664;2023-06-14T12:37:25;8.90;;;2.70;;
29814;SDS011;16708;50.426;7.664;2023-06-14T12:42:19;4.20;;;2.60;;
29814;SDS011;16708;50.426;7.664;2023-06-14T12:47:13;2.40;;;2.00;;
29814;SDS011;16708;50.426;7.664;2023-06-14T12:52:06;2.70;;;2.10;;
29814;SDS011;16708;50.426;7.664;2023-06-14T12:57:01;4.20;;;2.40;;
29814;SDS011;16708;50.426;7.664;2023-06-14T13:01:55;4.30;;;2.20;;
29814;SDS011;16708;50.426;7.664;2023-06-14T13:06:50;4.60;;;2.10;;
29814;SDS011;16708;50.426;7.664;2023-06-14T13:11:43;5.70;;;2.30;;
29814;SDS011;16708;50.426;7.664;2023-06-14T13:16:38;4.50;;;2.10;;
29814;SDS011;16708;50.426;7.664;2023-06-14T13:21:33;3.60;;;2.30;;
29814;SDS011;16708;50.426;7.664;2023-06-14T13:26:27;4.00;;;2.30;;
29814;SDS011;16708;50.426;7.664;2023-06-14T13:31:21;7.10;;;2.20;;
29814;SDS011;16708;50.426;7.664;2023-06-14T13:36:16;4.20;;;2.10;;
29814;SDS011;16708;50.426;7.664;2023-06-14T13:41:09;4.60;;;2.10;;
29814;SDS011;16708;50.426;7.664;2023-06-14T13:46:05;2.20;;;2.00;;
29814;SDS011;16708;50.426;7.664;2023-06-14T13:51:02;3.80;;;2.30;;
29814;SDS011;16708;50.426;7.664;2023-06-14T13:55:56;5.20;;;2.50;;
29814;SDS011;16708;50.426;7.664;2023-06-14T14:00:49;6.50;;;2.10;;
29814;SDS011;16708;50.426;7.664;2023-06-14T14:05:41;3.00;;;2.00;;
29814;SDS011;16708;50.426;7.664;2023-06-14T14:10:37;2.70;;;2.20;;
29814;SDS011;16708;50.426;7.664;2023-06-14T14:15:32;3.00;;;2.20;;
29814;SDS011;16708;50.426;7.664;2023-06-14T14:20:27;3.50;;;2.20;;
29814;SDS011;16708;50.426;7.664;2023-06-14T14:25:21;3.80;;;2.30;;
29814;SDS011;16708;50.426;7.664;2023-06-14T14:30:14;3.00;;;2.00;;
29814;SDS011;16708;50.426;7.664;2023-06-14T14:35:09;3.00;;;2.40;;
29814;SDS011;16708;50.426;7.664;2023-06-14T14:40:04;5.70;;;2.30;;
29814;SDS011;16708;50.426;7.664;2023-06-14T14:44:59;2.80;;;2.50;;
29814;SDS011;16708;50.426;7.664;2023-06-14T14:49:55;4.10;;;2.40;;
29814;SDS011;16708;50.426;7.664;2023-06-14T14:54:50;3.80;;;2.30;;
29814;SDS011;16708;50.426;7.664;2023-06-14T14:59:44;4.10;;;2.30;;
29814;SDS011;16708;50.426;7.664;2023-06-14T15:04:38;4.10;;;2.80;;
29814;SDS011;16708;50.426;7.664;2023-06-14T15:09:33;3.00;;;2.60;;
29814;SDS011;16708;50.426;7.664;2023-06-14T15:14:27;5.10;;;2.50;;
29814;SDS011;16708;50.426;7.664;2023-06-14T15:19:21;2.60;;;2.40;;
29814;SDS011;16708;50.426;7.664;2023-06-14T15:24:16;4.60;;;2.50;;
29814;SDS011;16708;50.426;7.664;2023-06-14T15:29:10;4.00;;;2.60;;
29814;SDS011;16708;50.426;7.664;2023-06-14T15:34:05;3.80;;;2.30;;
29814;SDS011;16708;50.426;7.664;2023-06-14T15:38:58;2.60;;;2.40;;
29814;SDS011;16708;50.426;7.664;2023-06-14T15:43:53;2.60;;;2.30;;
29814;SDS011;16708;50.426;7.664;2023-06-14T15:48:45;2.50;;;2.30;;
29814;SDS011;16708;50.426;7.664;2023-06-14T15:53:39;2.70;;;2.20;;
29814;SDS011;16708;50.426;7.664;2023-06-14T15:58:32;5.00;;;2.50;;
29814;SDS011;16708;50.426;7.664;2023-06-14T16:03:26;4.60;;;2.30;;
29814;SDS011;16708;50.426;7.664;2023-06-14T16:08:20;2.90;;;2.30;;
29814;SDS011;16708;50.426;7.664;2023-06-14T16:13:13;3.60;;;2.40;;
29814;SDS011;16708;50.426;7.664;2023-06-14T16:18:05;3.40;;;2.10;;
29814;SDS011;16708;50.426;7.664;2023-06-14T16:22:59;5.70;;;2.10;;
29814;SDS011;16708;50.426;7.664;2023-06-14T16:27:54;2.60;;;2.40;;
29814;SDS011;16708;50.426;7.664;2023-06-14T16:32:49;3.20;;;2.30;;
29814;SDS011;16708;50.426;7.664;2023-06-14T16:37:45;3.50;;;2.40;;
29814;SDS011;16708;50.426;7.664;2023-06-14T16:42:39;2.90;;;2.40;;
29814;SDS011;16708;50.426;7.664;2023-06-14T16:47:34;3.00;;;2.40;;
29814;SDS011;16708;50.426;7.664;2023-06-14T16:52:29;4.10;;;2.50;;
29814;SDS011;16708;50.426;7.664;2023-06-14T16:57:23;3.00;;;2.30;;
29814;SDS011;16708;50.426;7.664;2023-06-14T17:02:15;3.70;;;2.40;;
29814;SDS011;16708;50.426;7.664;2023-06-14T17:07:08;3.30;;;2.50;;
29814;SDS011;16708;50.426;7.664;2023-06-14T17:12:02;2.50;;;2.20;;
29814;SDS011;16708;50.426;7.664;2023-06-14T17:16:55;2.60;;;2.20;;
29814;SDS011;16708;50.426;7.664;2023-06-14T17:21:50;2.70;;;2.50;;
29814;SDS011;16708;50.426;7.664;2023-06-14T17:26:45;2.60;;;2.40;;
29814;SDS011;16708;50.426;7.664;2023-06-14T17:31:40;5.30;;;2.30;;
29814;SDS011;16708;50.426;7.664;2023-06-14T17:36:35;5.60;;;2.30;;
29814;SDS011;16708;50.426;7.664;2023-06-14T17:41:30;4.10;;;2.30;;
29814;SDS011;16708;50.426;7.664;2023-06-14T17:46:24;2.20;;;2.00;;
29814;SDS011;16708;50.426;7.664;2023-06-14T17:51:18;2.70;;;2.20;;
29814;SDS011;16708;50.426;7.664;2023-06-14T17:56:12;2.40;;;2.20;;
29814;SDS011;16708;50.426;7.664;2023-06-14T18:01:06;6.00;;;2.30;;
29814;SDS011;16708;50.426;7.664;2023-06-14T18:05:59;2.70;;;2.00;;
29814;SDS011;16708;50.426;7.664;2023-06-14T18:10:53;3.70;;;2.40;;
29814;SDS011;16708;50.426;7.664;2023-06-14T18:15:46;4.30;;;2.30;;
29814;SDS011;16708;50.426;7.664;2023-06-14T18:20:41;3.70;;;2.70;;
29814;SDS011;16708;50.426;7.664;2023-06-14T18:25:35;4.10;;;2.20;;
29814;SDS011;16708;50.426;7.664;2023-06-14T18:30:29;4.90;;;2.30;;
29814;SDS011;16708;50.426;7.664;2023-06-14T18:35:23;3.60;;;2.40;;
29814;SDS011;16708;50.426;7.664;2023-06-14T18:40:17;2.70;;;2.30;;
29814;SDS011;16708;50.426;7.664;2023-06-14T18:45:12;4.00;;;2.10;;
29814;SDS011;16708;50.426;7.664;2023-06-14T18:50:05;4.20;;;2.30;;
29814;SDS011;16708;50.426;7.664;2023-06-14T18:54:59;3.70;;;2.50;;
29814;SDS011;16708;50.426;7.664;2023-06-14T18:59:53;4.00;;;2.20;;
29814;SDS011;16708;50.426;7.664;2023-06-14T19:04:47;3.20;;;2.10;;
29814;SDS011;16708;50.426;7.664;2023-06-14T19:09:41;3.20;;;2.40;;
29814;SDS011;16708;50.426;7.664;2023-06-14T19:14:34;3.10;;;2.40;;
29814;SDS011;16708;50.426;7.664;2023-06-14T19:19:28;5.00;;;3.00;;
29814;SDS011;16708;50.426;7.664;2023-06-14T19:24:22;6.60;;;2.50;;
29814;SDS011;16708;50.426;7.664;2023-06-14T19:29:17;4.20;;;2.50;;
29814;SDS011;16708;50.426;7.664;2023-06-14T19:34:11;4.40;;;2.00;;
29814;SDS011;16708;50.426;7.664;2023-06-14T19:39:05;6.80;;;2.30;;
29814;SDS011;16708;50.426;7.664;2023-06-14T19:43:57;4.60;;;2.50;;
29814;SDS011;16708;50.426;7.664;2023-06-14T19:48:52;5.90;;;2.40;;
29814;SDS011;16708;50.426;7.664;2023-06-14T19:53:46;4.60;;;2.60;;
29814;SDS011;16708;50.426;7.664;2023-06-14T19:58:41;3.40;;;2.50;;
29814;SDS011;16708;50.426;7.664;2023-06-14T20:03:35;4.60;;;2.40;;
29814;SDS011;16708;50.426;7.664;2023-06-14T20:08:30;4.10;;;2.20;;
29814;SDS011;16708;50.426;7.664;2023-06-14T20:13:24;3.80;;;2.20;;
29814;SDS011;16708;50.426;7.664;2023-06-14T20:18:18;4.80;;;2.20;;
29814;SDS011;16708;50.426;7.664;2023-06-14T20:23:12;4.40;;;2.10;;
29814;SDS011;16708;50.426;7.664;2023-06-14T20:28:06;3.90;;;2.10;;
29814;SDS011;16708;50.426;7.664;2023-06-14T20:33:01;4.10;;;2.00;;
29814;SDS011;16708;50.426;7.664;2023-06-14T20:37:55;4.40;;;2.10;;
29814;SDS011;16708;50.426;7.664;2023-06-14T20:42:49;3.00;;;2.10;;
29814;SDS011;16708;50.426;7.664;2023-06-14T20:47:44;3.30;;;2.20;;
29814;SDS011;16708;50.426;7.664;2023-06-14T20:52:37;4.20;;;2.30;;
29814;SDS011;16708;50.426;7.664;2023-06-14T20:57:29;3.70;;;2.40;;
29814;SDS011;16708;50.426;7.664;2023-06-14T21:02:23;2.60;;;2.10;;
29814;SDS011;16708;50.426;7.664;2023-06-14T21:07:16;2.60;;;2.10;;
29814;SDS011;16708;50.426;7.664;2023-06-14T21:12:10;2.70;;;2.10;;
29814;SDS011;16708;50.426;7.664;2023-06-14T21:17:04;2.60;;;1.90;;
29814;SDS011;16708;50.426;7.664;2023-06-14T21:21:58;2.70;;;1.90;;
29814;SDS011;16708;50.426;7.664;2023-06-14T21:26:52;4.30;;;2.10;;
29814;SDS011;16708;50.426;7.664;2023-06-14T21:31:44;3.40;;;2.00;;
29814;SDS011;16708;50.426;7.664;2023-06-14T21:36:36;3.80;;;2.10;;
29814;SDS011;16708;50.426;7.664;2023-06-14T21:41:30;2.80;;;2.10;;
29814;SDS011;16708;50.426;7.664;2023-06-14T21:46:22;6.10;;;2.00;;
29814;SDS011;16708;50.426;7.664;2023-06-14T21:51:16;2.40;;;1.70;;
29814;SDS011;16708;50.426;7.664;2023-06-14T21:56:11;3.10;;;1.80;;
29814;SDS011;16708;50.426;7.664;2023-06-14T22:01:05;2.80;;;1.90;;
29814;SDS011;16708;50.426;7.664;2023-06-14T22:05:59;3.60;;;1.90;;
29814;SDS011;16708;50.426;7.664;2023-06-14T22:10:53;2.60;;;1.80;;
29814;SDS011;16708;50.426;7.664;2023-06-14T22:15:47;2.40;;;1.70;;
29814;SDS011;16708;50.426;7.664;2023-06-14T22:20:41;3.30;;;1.80;;
29814;SDS011;16708;50.426;7.664;2023-06-14T22:25:35;3.40;;;1.70;;
29814;SDS011;16708;50.426;7.664;2023-06-14T22:30:29;3.50;;;1.70;;
29814;SDS011;16708;50.426;7.664;2023-06-14T22:35:23;2.40;;;1.80;;
29814;SDS011;16708;50.426;7.664;2023-06-14T22:40:17;2.50;;;1.80;;
29814;SDS011;16708;50.426;7.664;2023-06-14T22:45:11;2.30;;;1.60;;
29814;SDS011;16708;50.426;7.664;2023-06-14T22:50:05;4.40;;;1.90;;
29814;SDS011;16708;50.426;7.664;2023-06-14T22:54:59;3.70;;;2.30;;
29814;SDS011;16708;50.426;7.664;2023-06-14T22:59:54;4.20;;;1.90;;
29814;SDS011;16708;50.426;7.664;2023-06-14T23:04:48;4.00;;;1.70;;
29814;SDS011;16708;50.426;7.664;2023-06-14T23:09:39;3.50;;;2.00;;
29814;SDS011;16708;50.426;7.664;2023-06-14T23:14:33;4.00;;;2.30;;
29814;SDS011;16708;50.426;7.664;2023-06-14T23:19:27;2.80;;;2.10;;
29814;SDS011;16708;50.426;7.664;2023-06-14T23:24:21;2.10;;;1.70;;
29814;SDS011;16708;50.426;7.664;2023-06-14T23:29:16;4.00;;;2.00;;
29814;SDS011;16708;50.426;7.664;2023-06-14T23:34:10;4.00;;;2.00;;
29814;SDS011;16708;50.426;7.664;2023-06-14T23:39:04;4.60;;;1.90;;
29814;SDS011;16708;50.426;7.664;2023-06-14T23:43:58;4.30;;;2.00;;
29814;SDS011;16708;50.426;7.664;2023-06-14T23:48:52;4.40;;;2.10;;
29814;SDS011;16708;50.426;7.664;2023-06-14T23:53:46;3.80;;;2.10;;
29814;SDS011;16708;50.426;7.664;2023-06-14T23:58:41;4.40;;;1.90;;
